Time;durP1;ratioP1;P1;durP2;ratioP2;P2;SDS_P1;SDS_P2;PMS_P1;PMS_P2;Temp;Humidity;BMP_temperature;BMP_pressure;BME280_temperature;BME280_humidity;BME280_pressure;Samples;Min_cycle;Max_cycle;Signal;HPM_P1;HPM_P2
2021/01/09 00:00:17;;;;;;;37.00;16.23;;;;;;;;;;5005423;28;20019;-82
2021/01/09 00:02:42;;;;;;;34.47;17.23;;;;;;;;;;5005467;28;20116;-82
2021/01/09 00:05:08;;;;;;;45.17;19.73;;;;;;;;;;4990580;28;20152;-81
2021/01/09 00:07:34;;;;;;;34.93;18.80;;;;;;;;;;5005245;28;20026;-82
2021/01/09 00:09:59;;;;;;;33.30;17.53;;;;;;;;;;5005118;28;20100;-82
2021/01/09 00:12:24;;;;;;;27.63;15.20;;;;;;;;;;5005712;28;20034;-82
2021/01/09 00:14:50;;;;;;;28.83;14.60;;;;;;;;;;4990281;28;20373;-81
2021/01/09 00:17:15;;;;;;;51.27;18.67;;;;;;;;;;5005183;28;20087;-81
2021/01/09 00:19:40;;;;;;;42.20;18.40;;;;;;;;;;4988528;28;20022;-82
2021/01/09 00:22:06;;;;;;;37.63;16.80;;;;;;;;;;4990437;28;20075;-81
2021/01/09 00:24:31;;;;;;;36.00;17.17;;;;;;;;;;4988693;28;20541;-83
2021/01/09 00:26:56;;;;;;;43.87;17.43;;;;;;;;;;4988762;28;20026;-82
2021/01/09 00:29:22;;;;;;;32.00;15.20;;;;;;;;;;4988254;28;20544;-82
2021/01/09 00:31:47;;;;;;;33.63;15.10;;;;;;;;;;4998559;28;20042;-82
2021/01/09 00:34:12;;;;;;;29.77;15.90;;;;;;;;;;4980047;28;20019;-81
2021/01/09 00:36:44;;;;;;;35.43;17.53;;;;;;;;;;4988858;28;20023;-81
2021/01/09 00:39:10;;;;;;;53.65;22.10;;;;;;;;;;4972246;28;20030;-82
2021/01/09 00:41:35;;;;;;;52.37;22.27;;;;;;;;;;4998390;28;20752;-82
2021/01/09 00:44:00;;;;;;;59.67;23.13;;;;;;;;;;4988807;28;20449;-81
2021/01/09 00:46:25;;;;;;;60.43;24.43;;;;;;;;;;4988376;28;20026;-81
2021/01/09 00:48:51;;;;;;;59.20;23.73;;;;;;;;;;4989606;28;20022;-81
2021/01/09 00:51:17;;;;;;;59.43;25.00;;;;;;;;;;4990274;28;20054;-81
2021/01/09 00:53:42;;;;;;;60.57;25.33;;;;;;;;;;4988648;28;20026;-81
2021/01/09 00:56:07;;;;;;;59.27;25.20;;;;;;;;;;4990625;28;20021;-82
2021/01/09 00:58:33;;;;;;;59.80;25.07;;;;;;;;;;4988020;28;20030;-81
2021/01/09 01:00:58;;;;;;;60.43;24.43;;;;;;;;;;4981195;28;20482;-81
2021/01/09 01:03:23;;;;;;;59.43;24.73;;;;;;;;;;4988019;28;20037;-81
2021/01/09 01:05:49;;;;;;;61.90;25.67;;;;;;;;;;4988975;28;20034;-81
2021/01/09 01:08:14;;;;;;;55.60;23.77;;;;;;;;;;4988275;28;20022;-81
2021/01/09 01:10:39;;;;;;;52.20;23.53;;;;;;;;;;4988704;28;20030;-81
2021/01/09 01:13:04;;;;;;;52.47;25.03;;;;;;;;;;5004921;28;20145;-81
2021/01/09 01:15:29;;;;;;;52.80;22.47;;;;;;;;;;5004911;28;20073;-81
2021/01/09 01:17:54;;;;;;;48.70;22.87;;;;;;;;;;4987828;28;20034;-81
2021/01/09 01:20:20;;;;;;;47.43;21.30;;;;;;;;;;4988524;28;20407;-82
2021/01/09 01:22:45;;;;;;;51.10;21.77;;;;;;;;;;4988919;28;20084;-81
2021/01/09 01:25:11;;;;;;;48.67;21.77;;;;;;;;;;4988582;28;20026;-81
2021/01/09 01:27:36;;;;;;;48.53;22.00;;;;;;;;;;4989641;28;20549;-81
2021/01/09 01:30:02;;;;;;;47.07;22.00;;;;;;;;;;4987858;28;20033;-81
2021/01/09 01:32:27;;;;;;;47.80;21.60;;;;;;;;;;4988017;28;20069;-81
2021/01/09 01:34:52;;;;;;;50.53;20.67;;;;;;;;;;4987416;28;20478;-81
2021/01/09 01:37:17;;;;;;;52.13;22.10;;;;;;;;;;4989859;28;20037;-81
2021/01/09 01:39:42;;;;;;;54.60;21.20;;;;;;;;;;5004640;28;20378;-81
2021/01/09 01:42:08;;;;;;;54.13;21.50;;;;;;;;;;4988693;28;20106;-81
2021/01/09 01:44:33;;;;;;;53.37;22.27;;;;;;;;;;4988596;28;20018;-81
2021/01/09 01:46:59;;;;;;;53.87;21.57;;;;;;;;;;5004179;28;20091;-81
2021/01/09 01:49:25;;;;;;;52.27;22.13;;;;;;;;;;4989295;28;20022;-81
2021/01/09 01:51:51;;;;;;;48.50;19.63;;;;;;;;;;4990232;28;20018;-81
2021/01/09 01:54:17;;;;;;;53.33;20.40;;;;;;;;;;4992361;28;20030;-81
2021/01/09 01:56:42;;;;;;;53.53;20.50;;;;;;;;;;5008633;28;20470;-81
2021/01/09 01:59:07;;;;;;;46.37;20.00;;;;;;;;;;4991961;28;20049;-81
2021/01/09 02:01:34;;;;;;;58.33;20.13;;;;;;;;;;4991530;28;20077;-81
2021/01/09 02:03:59;;;;;;;49.83;20.03;;;;;;;;;;4992821;28;20057;-81
2021/01/09 02:06:28;;;;;;;58.53;21.27;;;;;;;;;;4993090;28;20469;-81
2021/01/09 02:09:00;;;;;;;51.13;20.17;;;;;;;;;;4990582;28;20034;-82
2021/01/09 02:11:44;;;;;;;52.70;20.35;;;;;;;;;;4975315;28;20446;-81
2021/01/09 02:14:14;;;;;;;61.53;20.73;;;;;;;;;;4992259;28;20037;-81
2021/01/09 02:16:41;;;;;;;55.67;20.87;;;;;;;;;;4990927;28;20117;-81
2021/01/09 02:19:10;;;;;;;50.50;20.50;;;;;;;;;;4990554;28;20030;-81
2021/01/09 02:21:42;;;;;;;52.50;20.40;;;;;;;;;;4991210;28;20019;-81
2021/01/09 02:24:10;;;;;;;52.38;20.98;;;;;;;;;;4991778;28;20656;-81
2021/01/09 02:26:35;;;;;;;53.33;20.77;;;;;;;;;;5007989;28;20413;-81
2021/01/09 02:29:01;;;;;;;47.17;20.73;;;;;;;;;;4992590;28;20026;-81
2021/01/09 02:31:26;;;;;;;42.87;18.53;;;;;;;;;;4990602;28;20129;-81
2021/01/09 02:33:51;;;;;;;54.23;19.53;;;;;;;;;;4990651;28;20495;-82
2021/01/09 02:36:16;;;;;;;50.47;19.60;;;;;;;;;;5007543;28;20176;-81
2021/01/09 02:38:43;;;;;;;41.97;19.40;;;;;;;;;;4990990;28;20022;-81
2021/01/09 02:41:08;;;;;;;44.57;20.10;;;;;;;;;;4991187;28;20186;-81
2021/01/09 02:43:34;;;;;;;43.17;19.17;;;;;;;;;;4991030;28;20117;-81
2021/01/09 02:45:59;;;;;;;46.93;18.23;;;;;;;;;;4990814;28;20022;-81
2021/01/09 02:48:24;;;;;;;46.13;18.43;;;;;;;;;;5005819;28;20037;-82
2021/01/09 02:50:49;;;;;;;50.23;19.10;;;;;;;;;;4992449;28;20101;-82
2021/01/09 02:53:15;;;;;;;48.40;20.40;;;;;;;;;;4990577;28;20053;-82
2021/01/09 02:55:40;;;;;;;54.80;21.23;;;;;;;;;;4991039;28;20121;-81
2021/01/09 02:58:05;;;;;;;45.67;19.07;;;;;;;;;;4989977;28;20105;-81
2021/01/09 03:00:30;;;;;;;45.83;18.10;;;;;;;;;;5006640;28;20023;-81
2021/01/09 03:02:55;;;;;;;46.87;19.23;;;;;;;;;;4991636;28;20525;-82
2021/01/09 03:05:21;;;;;;;47.30;20.43;;;;;;;;;;4990090;28;20045;-81
2021/01/09 03:07:46;;;;;;;45.37;18.40;;;;;;;;;;4990087;28;20111;-81
2021/01/09 03:10:11;;;;;;;55.07;20.23;;;;;;;;;;4990264;28;20022;-81
2021/01/09 03:12:36;;;;;;;53.87;20.17;;;;;;;;;;4990275;28;20184;-81
2021/01/09 03:15:02;;;;;;;48.87;19.53;;;;;;;;;;4989966;28;20030;-81
2021/01/09 03:17:27;;;;;;;45.60;19.13;;;;;;;;;;4989619;28;20029;-81
2021/01/09 03:19:53;;;;;;;44.57;19.03;;;;;;;;;;4989570;28;20019;-81
2021/01/09 03:22:18;;;;;;;44.37;19.23;;;;;;;;;;4990423;28;20018;-81
2021/01/09 03:24:44;;;;;;;44.53;19.33;;;;;;;;;;4989640;28;20022;-82
2021/01/09 03:27:09;;;;;;;52.40;19.10;;;;;;;;;;4989612;28;20055;-81
2021/01/09 03:29:34;;;;;;;46.07;18.77;;;;;;;;;;5006128;28;20034;-81
2021/01/09 03:31:59;;;;;;;48.60;17.43;;;;;;;;;;4991032;28;20080;-81
2021/01/09 03:34:24;;;;;;;43.47;18.23;;;;;;;;;;4990986;28;20477;-81
2021/01/09 03:36:50;;;;;;;45.77;18.43;;;;;;;;;;4989885;28;20019;-81
2021/01/09 03:39:15;;;;;;;37.73;17.93;;;;;;;;;;4989583;28;20037;-81
2021/01/09 03:41:40;;;;;;;46.03;19.37;;;;;;;;;;4991264;28;20042;-82
2021/01/09 03:44:05;;;;;;;41.77;17.77;;;;;;;;;;4990089;28;20053;-81
2021/01/09 03:46:30;;;;;;;48.93;17.67;;;;;;;;;;4989399;28;20102;-81
2021/01/09 03:48:56;;;;;;;40.70;18.20;;;;;;;;;;4988798;28;20069;-82
2021/01/09 03:51:21;;;;;;;46.53;18.23;;;;;;;;;;4989332;28;20037;-81
2021/01/09 03:53:46;;;;;;;44.77;17.70;;;;;;;;;;5005520;28;20010;-81
2021/01/09 03:56:11;;;;;;;44.07;19.60;;;;;;;;;;4989324;28;20044;-81
2021/01/09 03:58:37;;;;;;;45.17;19.93;;;;;;;;;;4988609;28;20075;-81
2021/01/09 04:01:02;;;;;;;48.70;20.40;;;;;;;;;;4989578;28;20450;-81
2021/01/09 04:03:27;;;;;;;47.07;19.63;;;;;;;;;;4988823;28;20034;-82
2021/01/09 04:05:52;;;;;;;51.53;20.90;;;;;;;;;;4989724;28;20117;-81
2021/01/09 04:08:18;;;;;;;47.43;19.97;;;;;;;;;;4988908;28;20022;-81
2021/01/09 04:10:43;;;;;;;52.93;21.63;;;;;;;;;;4990875;28;20034;-81
2021/01/09 04:13:08;;;;;;;56.80;21.43;;;;;;;;;;4990502;28;20034;-81
2021/01/09 04:15:33;;;;;;;53.43;20.67;;;;;;;;;;5005027;28;20492;-81
2021/01/09 04:17:58;;;;;;;55.23;21.00;;;;;;;;;;4988002;28;20018;-82
2021/01/09 04:20:24;;;;;;;55.87;22.67;;;;;;;;;;4988767;28;20019;-81
2021/01/09 04:22:49;;;;;;;48.57;21.47;;;;;;;;;;4988587;28;20019;-81
2021/01/09 04:25:14;;;;;;;58.97;23.17;;;;;;;;;;4988914;28;20037;-81
2021/01/09 04:27:39;;;;;;;60.80;20.60;;;;;;;;;;4988983;28;20512;-81
2021/01/09 04:30:04;;;;;;;60.43;22.83;;;;;;;;;;5004550;28;20018;-81
2021/01/09 04:32:30;;;;;;;54.87;20.90;;;;;;;;;;4988486;28;20022;-81
2021/01/09 04:34:56;;;;;;;64.47;23.40;;;;;;;;;;4987890;28;20113;-81
2021/01/09 04:37:21;;;;;;;76.63;26.60;;;;;;;;;;4988420;28;20033;-81
2021/01/09 04:39:47;;;;;;;75.30;25.70;;;;;;;;;;5004805;28;20030;-81
2021/01/09 04:42:12;;;;;;;58.37;24.03;;;;;;;;;;4988931;28;20026;-81
2021/01/09 04:44:37;;;;;;;61.70;24.70;;;;;;;;;;4990139;28;20033;-81
2021/01/09 04:47:03;;;;;;;68.40;25.00;;;;;;;;;;5003687;28;20026;-82
2021/01/09 04:49:29;;;;;;;85.13;27.83;;;;;;;;;;4988170;28;20509;-81
2021/01/09 04:51:55;;;;;;;78.13;26.27;;;;;;;;;;5003815;28;20386;-81
2021/01/09 04:54:21;;;;;;;70.93;25.90;;;;;;;;;;5004852;28;20040;-81
2021/01/09 04:56:48;;;;;;;66.33;25.40;;;;;;;;;;4988005;28;20054;-81
2021/01/09 04:59:14;;;;;;;68.53;24.53;;;;;;;;;;4987512;28;20072;-81
2021/01/09 05:01:43;;;;;;;59.90;21.63;;;;;;;;;;4987347;28;20022;-82
2021/01/09 05:04:09;;;;;;;54.87;19.17;;;;;;;;;;4986877;28;20035;-81
2021/01/09 05:06:35;;;;;;;66.03;22.67;;;;;;;;;;4980470;28;20404;-81
2021/01/09 05:09:00;;;;;;;64.67;24.10;;;;;;;;;;5003841;28;20018;-81
2021/01/09 05:11:25;;;;;;;54.43;21.27;;;;;;;;;;4988128;28;20162;-81
2021/01/09 05:13:51;;;;;;;49.47;19.10;;;;;;;;;;4988778;28;20018;-81
2021/01/09 05:16:16;;;;;;;57.53;19.83;;;;;;;;;;4987093;28;20354;-81
2021/01/09 05:18:42;;;;;;;48.77;18.27;;;;;;;;;;5003205;28;20357;-81
2021/01/09 05:21:10;;;;;;;47.57;17.97;;;;;;;;;;4987805;28;20010;-81
2021/01/09 05:23:52;;;;;;;50.63;18.77;;;;;;;;;;4988456;28;20442;-81
2021/01/09 05:26:18;;;;;;;47.67;17.80;;;;;;;;;;4989438;28;20022;-81
2021/01/09 05:28:44;;;;;;;46.27;15.27;;;;;;;;;;4991640;28;20026;-81
2021/01/09 05:31:09;;;;;;;35.73;14.30;;;;;;;;;;4992571;28;20044;-81
2021/01/09 05:33:34;;;;;;;43.57;16.50;;;;;;;;;;4991757;28;20512;-81
2021/01/09 05:35:59;;;;;;;48.20;15.77;;;;;;;;;;4992192;28;20033;-81
2021/01/09 05:38:33;;;;;;;40.97;17.23;;;;;;;;;;4991252;28;20014;-81
2021/01/09 05:41:05;;;;;;;45.97;15.77;;;;;;;;;;4991754;28;20049;-81
2021/01/09 05:43:30;;;;;;;49.13;16.85;;;;;;;;;;4992496;28;20022;-81
2021/01/09 05:45:56;;;;;;;56.30;20.90;;;;;;;;;;4991448;28;20084;-81
2021/01/09 05:48:22;;;;;;;74.40;23.43;;;;;;;;;;4989853;28;20022;-81
2021/01/09 05:50:48;;;;;;;94.67;26.40;;;;;;;;;;4993229;28;20027;-81
2021/01/09 05:53:33;;;;;;;75.70;24.17;;;;;;;;;;4991296;28;20496;-81
2021/01/09 05:55:58;;;;;;;81.90;26.10;;;;;;;;;;4991574;28;20481;-81
2021/01/09 05:58:23;;;;;;;79.70;24.60;;;;;;;;;;4991384;28;20018;-81
2021/01/09 06:00:50;;;;;;;59.63;20.87;;;;;;;;;;5007590;28;20023;-81
2021/01/09 06:03:30;;;;;;;53.17;19.10;;;;;;;;;;4990760;28;20165;-81
2021/01/09 06:05:57;;;;;;;49.50;18.93;;;;;;;;;;4994898;28;20038;-81
2021/01/09 06:08:26;;;;;;;65.00;20.00;;;;;;;;;;4990956;28;20104;-82
2021/01/09 06:10:55;;;;;;;62.87;19.33;;;;;;;;;;4992693;28;20026;-81
2021/01/09 06:13:23;;;;;;;49.77;18.60;;;;;;;;;;4991164;28;20038;-81
2021/01/09 06:15:48;;;;;;;46.57;18.63;;;;;;;;;;4990858;28;20022;-81
2021/01/09 06:18:14;;;;;;;60.67;19.67;;;;;;;;;;4991494;28;20469;-81
2021/01/09 06:20:39;;;;;;;49.40;18.43;;;;;;;;;;4991105;28;20030;-81
2021/01/09 06:23:04;;;;;;;51.03;18.17;;;;;;;;;;4991144;28;20058;-81
2021/01/09 06:25:32;;;;;;;58.07;18.93;;;;;;;;;;5007294;28;20027;-81
2021/01/09 06:28:02;;;;;;;50.37;18.20;;;;;;;;;;4990666;28;20041;-81
2021/01/09 06:30:29;;;;;;;46.87;17.67;;;;;;;;;;4990436;28;20042;-81
2021/01/09 06:32:55;;;;;;;43.73;18.37;;;;;;;;;;5006152;28;20030;-81
2021/01/09 06:35:21;;;;;;;53.77;18.03;;;;;;;;;;4991535;28;20438;-81
2021/01/09 06:37:46;;;;;;;45.00;17.97;;;;;;;;;;4991110;28;20122;-81
2021/01/09 06:40:12;;;;;;;51.00;17.77;;;;;;;;;;4990410;28;20025;-81
2021/01/09 06:42:37;;;;;;;53.17;18.97;;;;;;;;;;4992196;28;20034;-81
2021/01/09 06:45:03;;;;;;;49.17;17.17;;;;;;;;;;4989977;28;20476;-81
2021/01/09 06:47:29;;;;;;;48.73;17.50;;;;;;;;;;4989787;28;20465;-81
2021/01/09 06:49:55;;;;;;;58.43;19.57;;;;;;;;;;4989328;28;20121;-81
2021/01/09 06:52:20;;;;;;;75.30;30.47;;;;;;;;;;4990146;28;20462;-81
2021/01/09 06:54:46;;;;;;;51.90;19.07;;;;;;;;;;4990628;28;20022;-81
2021/01/09 06:57:15;;;;;;;49.90;19.97;;;;;;;;;;4990209;28;20028;-81
2021/01/09 06:59:40;;;;;;;51.67;21.20;;;;;;;;;;4991093;28;20030;-81
2021/01/09 07:02:15;;;;;;;52.70;23.17;;;;;;;;;;5005780;28;20021;-81
2021/01/09 07:04:59;;;;;;;49.87;19.13;;;;;;;;;;5006510;28;20391;-81
2021/01/09 07:07:29;;;;;;;47.43;17.53;;;;;;;;;;4990117;28;20050;-81
2021/01/09 07:10:00;;;;;;;40.93;16.40;;;;;;;;;;4991788;28;20027;-81
2021/01/09 07:12:27;;;;;;;38.60;15.73;;;;;;;;;;5006607;28;20027;-81
2021/01/09 07:14:52;;;;;;;37.57;16.23;;;;;;;;;;4989872;28;20184;-81
2021/01/09 07:17:18;;;;;;;43.63;16.07;;;;;;;;;;5006123;28;20392;-81
2021/01/09 07:19:45;;;;;;;41.30;15.87;;;;;;;;;;5006139;28;20470;-81
2021/01/09 07:22:10;;;;;;;32.43;15.50;;;;;;;;;;4990413;28;20473;-81
2021/01/09 07:24:38;;;;;;;38.43;15.20;;;;;;;;;;5006323;28;20042;-81
2021/01/09 07:27:05;;;;;;;38.87;14.97;;;;;;;;;;5006185;28;20042;-81
2021/01/09 07:29:36;;;;;;;36.13;15.80;;;;;;;;;;4989957;28;20045;-81
2021/01/09 07:32:02;;;;;;;45.67;15.73;;;;;;;;;;4989349;28;20057;-81
2021/01/09 07:34:29;;;;;;;41.23;15.87;;;;;;;;;;4989406;28;20469;-81
2021/01/09 07:36:54;;;;;;;36.63;15.70;;;;;;;;;;5005825;28;20050;-81
2021/01/09 07:39:22;;;;;;;41.10;17.87;;;;;;;;;;4990169;28;20050;-81
2021/01/09 07:41:47;;;;;;;47.10;17.57;;;;;;;;;;4990008;28;20454;-81
2021/01/09 07:44:18;;;;;;;43.37;17.00;;;;;;;;;;4990240;28;20026;-82
2021/01/09 07:46:50;;;;;;;39.63;16.63;;;;;;;;;;4988544;28;20037;-81
2021/01/09 07:49:28;;;;;;;38.00;16.30;;;;;;;;;;4988675;28;20033;-81
2021/01/09 07:51:55;;;;;;;38.37;16.10;;;;;;;;;;4989369;28;20118;-81
2021/01/09 07:54:29;;;;;;;39.93;16.37;;;;;;;;;;4989673;28;20437;-81
2021/01/09 07:56:54;;;;;;;40.37;15.63;;;;;;;;;;4990266;28;20069;-82
2021/01/09 07:59:20;;;;;;;36.53;16.20;;;;;;;;;;4989677;28;20022;-81
2021/01/09 08:01:45;;;;;;;46.87;16.27;;;;;;;;;;5005314;28;20065;-81
2021/01/09 08:04:11;;;;;;;49.57;16.63;;;;;;;;;;4988516;28;20054;-81
2021/01/09 08:06:36;;;;;;;40.30;16.77;;;;;;;;;;5005574;28;20108;-81
2021/01/09 08:09:02;;;;;;;35.90;15.63;;;;;;;;;;4991706;28;20025;-81
2021/01/09 08:11:27;;;;;;;38.83;15.73;;;;;;;;;;4982095;28;20023;-81
2021/01/09 08:13:59;;;;;;;41.93;17.50;;;;;;;;;;4980524;28;20046;-81
2021/01/09 08:16:25;;;;;;;45.95;17.70;;;;;;;;;;5006443;28;20386;-81
2021/01/09 08:18:50;;;;;;;41.63;17.90;;;;;;;;;;5006752;28;20026;-81
2021/01/09 08:21:19;;;;;;;46.10;17.10;;;;;;;;;;5005636;28;20022;-81
2021/01/09 08:23:52;;;;;;;38.57;17.17;;;;;;;;;;5007398;28;20018;-81
2021/01/09 08:26:17;;;;;;;40.47;17.92;;;;;;;;;;4991928;28;20098;-81
2021/01/09 08:28:42;;;;;;;43.33;18.10;;;;;;;;;;4990802;28;20461;-81
2021/01/09 08:31:10;;;;;;;40.53;19.27;;;;;;;;;;5006597;28;20022;-81
2021/01/09 08:33:35;;;;;;;40.83;17.30;;;;;;;;;;5006426;28;20029;-81
2021/01/09 08:36:01;;;;;;;40.57;17.90;;;;;;;;;;4989919;28;20022;-80
2021/01/09 08:38:26;;;;;;;49.93;18.93;;;;;;;;;;5006558;28;20088;-82
2021/01/09 08:40:56;;;;;;;45.33;17.93;;;;;;;;;;5007062;28;20097;-81
2021/01/09 08:43:21;;;;;;;40.50;18.00;;;;;;;;;;5006574;28;20018;-81
2021/01/09 08:45:53;;;;;;;48.23;17.80;;;;;;;;;;4991204;28;20130;-81
2021/01/09 08:48:19;;;;;;;41.85;18.48;;;;;;;;;;5004262;28;20037;-81
2021/01/09 08:51:03;;;;;;;48.37;17.37;;;;;;;;;;4991843;28;20027;-80
2021/01/09 08:53:34;;;;;;;45.57;17.27;;;;;;;;;;5006739;28;20045;-80
2021/01/09 08:56:01;;;;;;;42.07;17.87;;;;;;;;;;5001948;28;20438;-83
2021/01/09 08:58:27;;;;;;;51.40;19.13;;;;;;;;;;4987361;28;20530;-81
2021/01/09 09:00:53;;;;;;;50.80;18.23;;;;;;;;;;4984120;28;20101;-80
2021/01/09 09:03:19;;;;;;;46.43;17.23;;;;;;;;;;4995156;28;20034;-82
2021/01/09 09:05:47;;;;;;;42.40;17.40;;;;;;;;;;5005606;28;20022;-81
2021/01/09 09:08:13;;;;;;;45.57;19.03;;;;;;;;;;4983171;28;20504;-81
2021/01/09 09:10:39;;;;;;;69.33;19.70;;;;;;;;;;4991955;28;20030;-81
2021/01/09 09:13:14;;;;;;;51.43;20.17;;;;;;;;;;5005249;28;20022;-81
2021/01/09 09:15:39;;;;;;;53.90;18.43;;;;;;;;;;5004917;28;20014;-81
2021/01/09 09:18:05;;;;;;;47.93;18.57;;;;;;;;;;5008783;28;20026;-81
2021/01/09 09:20:30;;;;;;;50.63;17.57;;;;;;;;;;5003506;28;20022;-81
2021/01/09 09:22:55;;;;;;;49.40;18.30;;;;;;;;;;4989821;28;20030;-81
2021/01/09 09:25:24;;;;;;;48.60;18.70;;;;;;;;;;5006064;28;20500;-81
2021/01/09 09:27:50;;;;;;;52.83;19.53;;;;;;;;;;4989139;28;20327;-81
2021/01/09 09:30:17;;;;;;;57.90;18.87;;;;;;;;;;4970571;28;20470;-81
2021/01/09 09:32:46;;;;;;;58.73;18.90;;;;;;;;;;4985777;28;20027;-81
2021/01/09 09:35:23;;;;;;;52.20;17.87;;;;;;;;;;4988995;28;20044;-81
2021/01/09 09:37:49;;;;;;;49.03;19.50;;;;;;;;;;4975255;28;20367;-81
2021/01/09 09:40:24;;;;;;;61.20;22.57;;;;;;;;;;5001381;28;20014;-81
2021/01/09 09:42:50;;;;;;;42.97;16.63;;;;;;;;;;5002760;28;20023;-81
2021/01/09 09:45:16;;;;;;;47.20;17.83;;;;;;;;;;5005268;28;20077;-81
2021/01/09 09:47:45;;;;;;;41.77;16.97;;;;;;;;;;5005253;28;20049;-82
2021/01/09 09:50:12;;;;;;;41.70;16.10;;;;;;;;;;4991420;28;20035;-82
2021/01/09 09:52:37;;;;;;;45.87;16.43;;;;;;;;;;5004389;28;20246;-81
2021/01/09 09:55:07;;;;;;;44.33;16.03;;;;;;;;;;5004974;28;20018;-82
2021/01/09 09:57:32;;;;;;;32.60;13.17;;;;;;;;;;5003527;28;20030;-82
2021/01/09 10:00:15;;;;;;;38.47;14.50;;;;;;;;;;5000567;28;20080;-81
2021/01/09 10:02:53;;;;;;;49.67;14.35;;;;;;;;;;5004581;28;20062;-81
2021/01/09 10:05:19;;;;;;;35.83;14.80;;;;;;;;;;4994516;28;20039;-81
2021/01/09 10:07:44;;;;;;;33.90;13.60;;;;;;;;;;4991792;28;20113;-81
2021/01/09 10:10:13;;;;;;;34.57;13.77;;;;;;;;;;4993684;28;20022;-82
2021/01/09 10:12:39;;;;;;;46.27;16.00;;;;;;;;;;4992102;28;20035;-82
2021/01/09 10:15:04;;;;;;;42.10;16.70;;;;;;;;;;4992840;28;20033;-81
2021/01/09 10:17:29;;;;;;;36.80;16.60;;;;;;;;;;5004439;28;20037;-80
2021/01/09 10:19:54;;;;;;;46.03;16.17;;;;;;;;;;4991488;28;20500;-82
2021/01/09 10:22:20;;;;;;;37.87;15.80;;;;;;;;;;5008779;28;20034;-82
2021/01/09 10:24:45;;;;;;;40.77;16.90;;;;;;;;;;5008308;28;20034;-82
2021/01/09 10:27:10;;;;;;;31.33;15.80;;;;;;;;;;5006161;28;20022;-82
2021/01/09 10:29:35;;;;;;;39.23;15.13;;;;;;;;;;4988625;28;20486;-83
2021/01/09 10:32:00;;;;;;;47.70;20.70;;;;;;;;;;4992347;28;20025;-82
2021/01/09 10:34:26;;;;;;;53.63;22.73;;;;;;;;;;5007135;28;20433;-82
2021/01/09 10:36:51;;;;;;;50.17;17.43;;;;;;;;;;4990110;28;20394;-82
2021/01/09 10:39:16;;;;;;;66.37;30.90;;;;;;;;;;4986714;28;20026;-83
2021/01/09 10:41:41;;;;;;;46.97;23.17;;;;;;;;;;5007408;28;20018;-82
2021/01/09 10:44:06;;;;;;;41.57;16.73;;;;;;;;;;4992710;28;20015;-82
2021/01/09 10:46:32;;;;;;;42.00;14.33;;;;;;;;;;4991083;28;20053;-82
2021/01/09 10:48:58;;;;;;;27.03;12.10;;;;;;;;;;4991051;28;21227;-82
2021/01/09 10:51:24;;;;;;;32.40;13.57;;;;;;;;;;4997135;28;20022;-82
2021/01/09 10:53:50;;;;;;;39.23;14.47;;;;;;;;;;4992454;28;20050;-82
2021/01/09 10:56:15;;;;;;;45.17;15.30;;;;;;;;;;5001918;28;20048;-82
2021/01/09 10:58:41;;;;;;;51.43;14.13;;;;;;;;;;4988160;28;20025;-83
2021/01/09 11:01:06;;;;;;;37.07;14.00;;;;;;;;;;5006166;28;20488;-82
2021/01/09 11:03:32;;;;;;;45.77;15.20;;;;;;;;;;4991321;28;20022;-83
2021/01/09 11:05:57;;;;;;;43.30;14.80;;;;;;;;;;4989069;28;20064;-81
2021/01/09 11:08:22;;;;;;;42.90;14.73;;;;;;;;;;5007079;28;20045;-82
2021/01/09 11:10:48;;;;;;;47.50;14.90;;;;;;;;;;4982499;28;20121;-83
2021/01/09 11:13:13;;;;;;;37.47;14.23;;;;;;;;;;4988418;28;20027;-82
2021/01/09 11:15:45;;;;;;;81.30;15.63;;;;;;;;;;4991364;28;20433;-83
2021/01/09 11:18:10;;;;;;;34.08;16.42;;;;;;;;;;4990886;28;20026;-84
2021/01/09 11:20:39;;;;;;;40.13;16.17;;;;;;;;;;5004150;28;20678;-83
2021/01/09 11:23:04;;;;;;;45.53;13.90;;;;;;;;;;5006254;28;20448;-83
2021/01/09 11:25:30;;;;;;;28.97;14.43;;;;;;;;;;5007765;28;20101;-82
2021/01/09 11:27:55;;;;;;;42.37;15.77;;;;;;;;;;5009661;28;20033;-82
2021/01/09 11:30:20;;;;;;;46.37;16.97;;;;;;;;;;4981280;28;20556;-82
2021/01/09 11:32:45;;;;;;;38.50;15.97;;;;;;;;;;5007001;28;20365;-86
2021/01/09 11:35:11;;;;;;;34.47;15.60;;;;;;;;;;5006532;28;20605;-87
2021/01/09 11:37:36;;;;;;;42.53;15.23;;;;;;;;;;4991474;28;20032;-86
2021/01/09 11:40:02;;;;;;;67.80;17.00;;;;;;;;;;4991421;28;20037;-86
2021/01/09 11:42:28;;;;;;;42.50;16.40;;;;;;;;;;5007951;28;20037;-86
2021/01/09 11:44:54;;;;;;;59.20;16.77;;;;;;;;;;5007891;28;20088;-86
2021/01/09 11:47:19;;;;;;;71.60;17.13;;;;;;;;;;4992961;28;20010;-86
2021/01/09 11:49:44;;;;;;;52.03;16.07;;;;;;;;;;5007309;28;20041;-85
2021/01/09 11:52:10;;;;;;;54.00;17.60;;;;;;;;;;5006915;28;20100;-86
2021/01/09 11:54:35;;;;;;;43.77;15.20;;;;;;;;;;5007200;28;20466;-85
2021/01/09 11:57:01;;;;;;;38.50;16.40;;;;;;;;;;4988849;28;20026;-86
2021/01/09 11:59:26;;;;;;;37.17;15.40;;;;;;;;;;4988910;28;20026;-85
2021/01/09 12:01:51;;;;;;;36.37;16.17;;;;;;;;;;5001820;28;20121;-85
2021/01/09 12:04:16;;;;;;;94.47;18.17;;;;;;;;;;4982263;28;20030;-83
2021/01/09 12:06:42;;;;;;;94.83;19.07;;;;;;;;;;4987225;28;20108;-85
2021/01/09 12:09:07;;;;;;;73.67;18.73;;;;;;;;;;4977952;28;20114;-84
2021/01/09 12:11:32;;;;;;;34.27;16.63;;;;;;;;;;4990622;28;20555;-85
2021/01/09 12:13:57;;;;;;;39.43;17.13;;;;;;;;;;5000820;28;20508;-84
2021/01/09 12:16:30;;;;;;;64.30;15.97;;;;;;;;;;4991531;28;20020;-86
2021/01/09 12:18:55;;;;;;;41.10;17.27;;;;;;;;;;4990308;28;20430;-85
2021/01/09 12:21:22;;;;;;;53.87;16.97;;;;;;;;;;4988865;28;20053;-85
2021/01/09 12:23:47;;;;;;;70.63;16.87;;;;;;;;;;5012792;28;20026;-85
2021/01/09 12:26:16;;;;;;;72.87;19.33;;;;;;;;;;5007045;28;20037;-86
2021/01/09 12:28:41;;;;;;;31.63;14.87;;;;;;;;;;4991347;28;20038;-85
2021/01/09 12:31:06;;;;;;;34.47;15.97;;;;;;;;;;4994650;28;20466;-86
2021/01/09 12:33:32;;;;;;;37.73;16.20;;;;;;;;;;5003432;28;20156;-85
2021/01/09 12:35:57;;;;;;;86.27;18.63;;;;;;;;;;5004152;28;20022;-85
2021/01/09 12:38:22;;;;;;;58.57;17.37;;;;;;;;;;4996746;28;20581;-86
2021/01/09 12:40:47;;;;;;;42.57;17.20;;;;;;;;;;4982743;28;20026;-86
2021/01/09 12:43:13;;;;;;;49.70;18.30;;;;;;;;;;4993924;28;20624;-86
2021/01/09 12:45:39;;;;;;;34.10;14.73;;;;;;;;;;5004490;28;20026;-86
2021/01/09 12:48:04;;;;;;;31.63;16.20;;;;;;;;;;5000457;28;20052;-84
2021/01/09 12:50:29;;;;;;;32.43;17.00;;;;;;;;;;4995717;28;20038;-84
2021/01/09 12:52:56;;;;;;;39.77;16.67;;;;;;;;;;4983900;28;20036;-86
2021/01/09 12:55:21;;;;;;;63.77;19.07;;;;;;;;;;4989380;28;20030;-86
2021/01/09 12:57:46;;;;;;;54.67;18.37;;;;;;;;;;5013243;28;20065;-86
2021/01/09 13:00:12;;;;;;;51.50;17.57;;;;;;;;;;4991759;28;20492;-86
2021/01/09 13:02:37;;;;;;;41.10;17.90;;;;;;;;;;4992191;28;20081;-86
2021/01/09 13:05:03;;;;;;;46.40;18.37;;;;;;;;;;5006243;28;20057;-86
2021/01/09 13:07:28;;;;;;;34.27;17.20;;;;;;;;;;5006840;28;20041;-86
2021/01/09 13:09:53;;;;;;;37.97;17.10;;;;;;;;;;5006696;28;20077;-86
2021/01/09 13:12:18;;;;;;;40.77;18.67;;;;;;;;;;4992147;28;20482;-86
2021/01/09 13:14:43;;;;;;;39.83;17.97;;;;;;;;;;4990149;28;20018;-86
2021/01/09 13:17:12;;;;;;;30.83;15.63;;;;;;;;;;5007014;28;20076;-86
2021/01/09 13:19:37;;;;;;;35.37;16.60;;;;;;;;;;5006711;28;20037;-86
2021/01/09 13:22:02;;;;;;;33.40;15.93;;;;;;;;;;4990771;28;20532;-86
2021/01/09 13:24:29;;;;;;;35.77;15.87;;;;;;;;;;5002274;28;20029;-86
2021/01/09 13:26:54;;;;;;;35.53;16.30;;;;;;;;;;4990532;28;20054;-86
2021/01/09 13:29:20;;;;;;;35.97;15.80;;;;;;;;;;5006818;28;20053;-86
2021/01/09 13:31:45;;;;;;;42.13;16.47;;;;;;;;;;4990377;28;20019;-86
2021/01/09 13:34:10;;;;;;;38.03;16.67;;;;;;;;;;4990527;28;20392;-86
2021/01/09 13:36:40;;;;;;;39.77;17.80;;;;;;;;;;4992560;28;20489;-85
2021/01/09 13:39:06;;;;;;;51.43;18.03;;;;;;;;;;4990390;28;20018;-86
2021/01/09 13:41:32;;;;;;;52.07;17.67;;;;;;;;;;4985558;28;20316;-85
2021/01/09 13:43:57;;;;;;;37.07;17.20;;;;;;;;;;5005799;28;20393;-86
2021/01/09 13:46:29;;;;;;;35.47;16.07;;;;;;;;;;4988109;28;20052;-86
2021/01/09 13:48:55;;;;;;;32.55;15.40;;;;;;;;;;4991861;28;20102;-85
2021/01/09 13:51:25;;;;;;;27.67;14.33;;;;;;;;;;5008178;28;20466;-86
2021/01/09 13:53:50;;;;;;;29.70;16.23;;;;;;;;;;5007851;28;20482;-86
2021/01/09 13:56:15;;;;;;;32.13;14.57;;;;;;;;;;4993547;28;20046;-86
2021/01/09 13:58:41;;;;;;;24.97;14.20;;;;;;;;;;4992181;28;20025;-86
2021/01/09 14:01:06;;;;;;;28.00;14.03;;;;;;;;;;4992575;28;20049;-87
2021/01/09 14:03:31;;;;;;;24.77;13.43;;;;;;;;;;4992688;28;20033;-87
2021/01/09 14:05:56;;;;;;;28.80;14.87;;;;;;;;;;4991827;28;20022;-86
2021/01/09 14:08:22;;;;;;;26.90;14.67;;;;;;;;;;4991548;28;20437;-86
2021/01/09 14:10:47;;;;;;;35.53;15.97;;;;;;;;;;5005772;28;20021;-86